Aérodrome :
LOGIN :

S'inscrire | Disclaimer

   EN    FR    IT 

 










Légende :    VFR   VFR Marginal   IFR   IFR Intensif   IFR Très Intensif
Visi : 
Plafond : 
>= 8 km
>= 3000ft
5 à 8 km
1000 à 3000 ft
1500m à 5 km
500 à 1000 ft
800 à 1500m
200 à 500 ft
< 800m
< 200 ft
Symboles :   Orages  Brouillard  Fortes neiges  Fortes précipitations  Vent > 20 kt
SIGMETs :   Divers  Orages  Givrage  Turbulence  Onde Orograph.  Cendres Volcan.






- Altitude de l'aérodrome : 194 ft


EBCV - Chièvres

DERNIER METAR :
  • 010525Z AUTO 01003KT 9999 NCD M02/M03 Q1024 BLU

METARs EXPIRÉS :
  • 010455Z AUTO VRB01KT 9999 NCD M02/M03 Q1024 BLU
  • 010425Z AUTO VRB02KT 9999 NCD M02/M03 Q1024 BLU
  • 010355Z AUTO 01004KT 9999 NCD M01/M03 Q1024 BLU
  • 010325Z AUTO VRB02KT 9999 NCD M01/M03 Q1025 BLU
  • 010255Z AUTO 07003KT 9999 NCD M01/M03 Q1025 BLU

TAF TAF EBCV
Valide du 31 à 19h jusqu'au 01 à 07h UTC


311541Z 3119/0107 05008KT 9999 NSC
BECMG 3122/0100 VRB03KT 6000 SKC
TEMPO 0103/0106 4000 HZ BY EBWM



MET'MAP, la Météo Aéronautique d'un coup d'oeil ! - Copyright ORBIFLY Décembre 2007 - Disclaimer

ORBIFLY MET'MAP TEAM :

Programmation & Développement : Alexandra Zaïnal
Sur une idée originale de : Baudouin d'Aumeries
Assistance à la programmation : Marc-Olivier Méhu
Soutien technique & logistique : Manuel Goepfert

Contact : metmap@orbifly.com




SOURCES & CREDITS :

   NOAA